Terminal Aerodrome Forecast
Issued by NWS Albany, NY

Home | Current Version | Previous Version | Text Only | Print | Product List | Glossary On
Versions: 1 2 3 4 5 6 7 8 9 10 11 12 13 14 15 16 17 18 19 20 21 22 23 24 25
000
FTUS41 KALY 041616 CCA
TAFALB
TAF COR
KALB 041616Z 0416/0512 VRB05KT P6SM VCSH FEW025 SCT035 BKN090
      TEMPO 0420/0422 26015G25KT 3SM TSRA SCT020 BKN035CB
     FM042200 28007KT P6SM SCT050 BKN100
     FM050700 VRB03KT P6SM BKN050 BKN100=

USA.gov is the U.S. government's official web portal to all federal, state and local government web resources and services.